sensor_id;sensor_type;location;lat;lon;timestamp;P1;durP1;ratioP1;P2;durP2;ratioP2
635;SDS011;302;50.206;8.196;2024-01-15T00:02:13;13.40;;;8.87;;
635;SDS011;302;50.206;8.196;2024-01-15T00:04:39;12.63;;;8.07;;
635;SDS011;302;50.206;8.196;2024-01-15T00:07:04;11.60;;;7.77;;
635;SDS011;302;50.206;8.196;2024-01-15T00:09:29;12.87;;;7.90;;
635;SDS011;302;50.206;8.196;2024-01-15T00:11:55;12.43;;;9.10;;
635;SDS011;302;50.206;8.196;2024-01-15T00:14:20;12.37;;;8.20;;
635;SDS011;302;50.206;8.196;2024-01-15T00:16:45;12.37;;;8.70;;
635;SDS011;302;50.206;8.196;2024-01-15T00:19:10;11.60;;;8.67;;
635;SDS011;302;50.206;8.196;2024-01-15T00:21:35;10.82;;;8.43;;
635;SDS011;302;50.206;8.196;2024-01-15T00:24:01;13.13;;;9.00;;
635;SDS011;302;50.206;8.196;2024-01-15T00:26:26;11.43;;;8.20;;
635;SDS011;302;50.206;8.196;2024-01-15T00:28:51;13.63;;;9.07;;
635;SDS011;302;50.206;8.196;2024-01-15T00:31:16;12.70;;;8.85;;
635;SDS011;302;50.206;8.196;2024-01-15T00:33:42;13.90;;;9.48;;
635;SDS011;302;50.206;8.196;2024-01-15T00:36:07;15.40;;;8.90;;
635;SDS011;302;50.206;8.196;2024-01-15T00:38:33;17.43;;;9.90;;
635;SDS011;302;50.206;8.196;2024-01-15T00:40:58;15.75;;;9.93;;
635;SDS011;302;50.206;8.196;2024-01-15T00:43:23;12.60;;;8.80;;
635;SDS011;302;50.206;8.196;2024-01-15T00:45:48;13.63;;;10.00;;
635;SDS011;302;50.206;8.196;2024-01-15T00:48:13;16.50;;;9.70;;
635;SDS011;302;50.206;8.196;2024-01-15T00:50:38;13.25;;;9.05;;
635;SDS011;302;50.206;8.196;2024-01-15T00:53:03;16.75;;;9.70;;
635;SDS011;302;50.206;8.196;2024-01-15T00:55:29;14.20;;;9.30;;
635;SDS011;302;50.206;8.196;2024-01-15T00:57:54;16.70;;;10.20;;
635;SDS011;302;50.206;8.196;2024-01-15T01:00:19;15.60;;;9.97;;
635;SDS011;302;50.206;8.196;2024-01-15T01:02:44;14.93;;;9.73;;
635;SDS011;302;50.206;8.196;2024-01-15T01:05:10;14.35;;;10.43;;
635;SDS011;302;50.206;8.196;2024-01-15T01:07:35;14.27;;;10.50;;
635;SDS011;302;50.206;8.196;2024-01-15T01:10:00;14.77;;;9.57;;
635;SDS011;302;50.206;8.196;2024-01-15T01:12:26;14.97;;;10.10;;
635;SDS011;302;50.206;8.196;2024-01-15T01:14:51;15.77;;;10.53;;
635;SDS011;302;50.206;8.196;2024-01-15T01:17:16;18.43;;;10.53;;
635;SDS011;302;50.206;8.196;2024-01-15T01:19:41;14.02;;;9.60;;
635;SDS011;302;50.206;8.196;2024-01-15T01:22:06;17.08;;;10.02;;
635;SDS011;302;50.206;8.196;2024-01-15T01:24:31;19.03;;;11.07;;
635;SDS011;302;50.206;8.196;2024-01-15T01:26:56;15.82;;;10.52;;
635;SDS011;302;50.206;8.196;2024-01-15T01:29:22;18.17;;;10.88;;
635;SDS011;302;50.206;8.196;2024-01-15T01:31:48;17.00;;;10.55;;
635;SDS011;302;50.206;8.196;2024-01-15T01:34:13;18.63;;;11.00;;
635;SDS011;302;50.206;8.196;2024-01-15T01:36:39;17.27;;;10.53;;
635;SDS011;302;50.206;8.196;2024-01-15T01:39:04;15.50;;;9.80;;
635;SDS011;302;50.206;8.196;2024-01-15T01:41:30;20.60;;;10.05;;
635;SDS011;302;50.206;8.196;2024-01-15T01:43:55;18.13;;;9.83;;
635;SDS011;302;50.206;8.196;2024-01-15T01:46:20;14.90;;;9.27;;
635;SDS011;302;50.206;8.196;2024-01-15T01:48:45;16.43;;;10.87;;
635;SDS011;302;50.206;8.196;2024-01-15T01:51:11;18.02;;;9.85;;
635;SDS011;302;50.206;8.196;2024-01-15T01:53:36;14.17;;;9.50;;
635;SDS011;302;50.206;8.196;2024-01-15T01:56:02;16.77;;;9.88;;
635;SDS011;302;50.206;8.196;2024-01-15T01:58:28;15.53;;;10.33;;
635;SDS011;302;50.206;8.196;2024-01-15T02:00:53;13.07;;;9.20;;
635;SDS011;302;50.206;8.196;2024-01-15T02:03:19;17.00;;;10.93;;
635;SDS011;302;50.206;8.196;2024-01-15T02:05:44;15.83;;;9.90;;
635;SDS011;302;50.206;8.196;2024-01-15T02:08:10;13.50;;;8.98;;
635;SDS011;302;50.206;8.196;2024-01-15T02:10:35;14.97;;;9.70;;
635;SDS011;302;50.206;8.196;2024-01-15T02:13:01;18.17;;;10.10;;
635;SDS011;302;50.206;8.196;2024-01-15T02:15:27;15.47;;;10.90;;
635;SDS011;302;50.206;8.196;2024-01-15T02:18:02;18.65;;;12.18;;
635;SDS011;302;50.206;8.196;2024-01-15T02:20:27;17.52;;;10.25;;
635;SDS011;302;50.206;8.196;2024-01-15T02:22:53;17.43;;;10.60;;
635;SDS011;302;50.206;8.196;2024-01-15T02:25:18;14.97;;;10.23;;
635;SDS011;302;50.206;8.196;2024-01-15T02:27:43;18.67;;;10.40;;
635;SDS011;302;50.206;8.196;2024-01-15T02:30:09;16.97;;;10.47;;
635;SDS011;302;50.206;8.196;2024-01-15T02:32:36;17.85;;;10.35;;
635;SDS011;302;50.206;8.196;2024-01-15T02:35:01;18.33;;;10.00;;
635;SDS011;302;50.206;8.196;2024-01-15T02:37:26;15.77;;;10.20;;
635;SDS011;302;50.206;8.196;2024-01-15T02:39:51;15.57;;;9.83;;
635;SDS011;302;50.206;8.196;2024-01-15T02:42:16;17.63;;;9.50;;
635;SDS011;302;50.206;8.196;2024-01-15T02:44:41;18.07;;;10.70;;
635;SDS011;302;50.206;8.196;2024-01-15T02:47:07;18.17;;;10.43;;
635;SDS011;302;50.206;8.196;2024-01-15T02:49:32;19.47;;;11.27;;
635;SDS011;302;50.206;8.196;2024-01-15T02:51:57;15.60;;;9.40;;
635;SDS011;302;50.206;8.196;2024-01-15T02:54:22;14.90;;;10.20;;
635;SDS011;302;50.206;8.196;2024-01-15T02:56:47;16.10;;;10.83;;
635;SDS011;302;50.206;8.196;2024-01-15T02:59:12;14.57;;;8.93;;
635;SDS011;302;50.206;8.196;2024-01-15T03:01:38;14.57;;;9.00;;
635;SDS011;302;50.206;8.196;2024-01-15T03:04:03;16.97;;;10.40;;
635;SDS011;302;50.206;8.196;2024-01-15T03:06:28;19.97;;;10.17;;
635;SDS011;302;50.206;8.196;2024-01-15T03:08:53;16.75;;;9.75;;
635;SDS011;302;50.206;8.196;2024-01-15T03:11:18;16.05;;;10.15;;
635;SDS011;302;50.206;8.196;2024-01-15T03:13:43;15.90;;;10.07;;
635;SDS011;302;50.206;8.196;2024-01-15T03:16:08;16.35;;;10.70;;
635;SDS011;302;50.206;8.196;2024-01-15T03:18:35;17.25;;;10.15;;
635;SDS011;302;50.206;8.196;2024-01-15T03:21:00;20.63;;;10.00;;
635;SDS011;302;50.206;8.196;2024-01-15T03:23:26;14.63;;;9.50;;
635;SDS011;302;50.206;8.196;2024-01-15T03:25:51;15.87;;;9.93;;
635;SDS011;302;50.206;8.196;2024-01-15T03:28:16;16.35;;;10.40;;
635;SDS011;302;50.206;8.196;2024-01-15T03:30:41;14.57;;;9.60;;
635;SDS011;302;50.206;8.196;2024-01-15T03:33:07;18.30;;;10.40;;
635;SDS011;302;50.206;8.196;2024-01-15T03:35:32;14.80;;;8.93;;
635;SDS011;302;50.206;8.196;2024-01-15T03:37:57;16.27;;;10.70;;
635;SDS011;302;50.206;8.196;2024-01-15T03:40:22;17.10;;;10.20;;
635;SDS011;302;50.206;8.196;2024-01-15T03:42:47;16.93;;;9.63;;
635;SDS011;302;50.206;8.196;2024-01-15T03:45:12;15.87;;;9.43;;
635;SDS011;302;50.206;8.196;2024-01-15T03:47:37;17.60;;;10.07;;
635;SDS011;302;50.206;8.196;2024-01-15T03:50:03;12.90;;;7.80;;
635;SDS011;302;50.206;8.196;2024-01-15T03:52:28;17.70;;;11.23;;
635;SDS011;302;50.206;8.196;2024-01-15T03:54:53;19.10;;;10.50;;
635;SDS011;302;50.206;8.196;2024-01-15T03:57:18;16.88;;;10.90;;
635;SDS011;302;50.206;8.196;2024-01-15T03:59:44;15.40;;;9.48;;
635;SDS011;302;50.206;8.196;2024-01-15T04:02:12;18.15;;;10.25;;
635;SDS011;302;50.206;8.196;2024-01-15T04:04:40;14.80;;;9.33;;
635;SDS011;302;50.206;8.196;2024-01-15T04:07:05;18.23;;;9.55;;
635;SDS011;302;50.206;8.196;2024-01-15T04:09:30;19.00;;;10.77;;
635;SDS011;302;50.206;8.196;2024-01-15T04:11:55;18.57;;;11.40;;
635;SDS011;302;50.206;8.196;2024-01-15T04:14:20;12.57;;;9.37;;
635;SDS011;302;50.206;8.196;2024-01-15T04:16:45;15.88;;;9.80;;
635;SDS011;302;50.206;8.196;2024-01-15T04:19:11;17.23;;;9.73;;
635;SDS011;302;50.206;8.196;2024-01-15T04:21:36;17.98;;;10.52;;
635;SDS011;302;50.206;8.196;2024-01-15T04:24:01;15.10;;;10.07;;
635;SDS011;302;50.206;8.196;2024-01-15T04:26:26;14.00;;;9.80;;
635;SDS011;302;50.206;8.196;2024-01-15T04:28:51;16.50;;;10.03;;
635;SDS011;302;50.206;8.196;2024-01-15T04:31:23;16.13;;;10.30;;
635;SDS011;302;50.206;8.196;2024-01-15T04:33:48;17.45;;;10.45;;
635;SDS011;302;50.206;8.196;2024-01-15T04:36:13;17.02;;;10.10;;
635;SDS011;302;50.206;8.196;2024-01-15T04:38:39;13.50;;;8.43;;
635;SDS011;302;50.206;8.196;2024-01-15T04:41:04;16.07;;;10.03;;
635;SDS011;302;50.206;8.196;2024-01-15T04:43:29;13.93;;;10.27;;
635;SDS011;302;50.206;8.196;2024-01-15T04:45:54;15.48;;;10.20;;
635;SDS011;302;50.206;8.196;2024-01-15T04:48:20;14.30;;;9.80;;
635;SDS011;302;50.206;8.196;2024-01-15T04:50:45;15.80;;;10.50;;
635;SDS011;302;50.206;8.196;2024-01-15T04:53:11;16.02;;;9.60;;
635;SDS011;302;50.206;8.196;2024-01-15T04:55:36;16.97;;;10.10;;
635;SDS011;302;50.206;8.196;2024-01-15T04:58:01;16.00;;;10.17;;
635;SDS011;302;50.206;8.196;2024-01-15T05:00:26;18.70;;;10.43;;
635;SDS011;302;50.206;8.196;2024-01-15T05:02:52;18.67;;;11.07;;
635;SDS011;302;50.206;8.196;2024-01-15T05:05:17;18.67;;;11.17;;
635;SDS011;302;50.206;8.196;2024-01-15T05:07:42;18.98;;;10.80;;
635;SDS011;302;50.206;8.196;2024-01-15T05:10:07;17.08;;;10.20;;
635;SDS011;302;50.206;8.196;2024-01-15T05:12:32;19.87;;;12.00;;
635;SDS011;302;50.206;8.196;2024-01-15T05:14:57;17.83;;;9.77;;
635;SDS011;302;50.206;8.196;2024-01-15T05:17:23;17.30;;;11.10;;
635;SDS011;302;50.206;8.196;2024-01-15T05:19:48;15.20;;;10.20;;
635;SDS011;302;50.206;8.196;2024-01-15T05:22:13;15.80;;;10.05;;
635;SDS011;302;50.206;8.196;2024-01-15T05:24:38;14.43;;;10.20;;
635;SDS011;302;50.206;8.196;2024-01-15T05:27:03;17.25;;;10.18;;
635;SDS011;302;50.206;8.196;2024-01-15T05:29:29;16.80;;;10.70;;
635;SDS011;302;50.206;8.196;2024-01-15T05:31:54;14.97;;;10.20;;
635;SDS011;302;50.206;8.196;2024-01-15T05:34:19;15.00;;;10.00;;
635;SDS011;302;50.206;8.196;2024-01-15T05:36:45;20.02;;;11.48;;
635;SDS011;302;50.206;8.196;2024-01-15T05:39:12;15.82;;;10.02;;
635;SDS011;302;50.206;8.196;2024-01-15T05:41:38;15.83;;;10.20;;
635;SDS011;302;50.206;8.196;2024-01-15T05:44:03;18.03;;;10.10;;
635;SDS011;302;50.206;8.196;2024-01-15T05:46:28;16.93;;;10.17;;
635;SDS011;302;50.206;8.196;2024-01-15T05:48:53;17.40;;;11.43;;
635;SDS011;302;50.206;8.196;2024-01-15T05:51:19;17.47;;;11.03;;
635;SDS011;302;50.206;8.196;2024-01-15T05:53:44;14.57;;;9.30;;
635;SDS011;302;50.206;8.196;2024-01-15T05:56:09;18.17;;;10.40;;
635;SDS011;302;50.206;8.196;2024-01-15T05:58:35;22.07;;;11.83;;
635;SDS011;302;50.206;8.196;2024-01-15T06:01:00;20.30;;;10.40;;
635;SDS011;302;50.206;8.196;2024-01-15T06:03:25;17.55;;;9.98;;
635;SDS011;302;50.206;8.196;2024-01-15T06:05:50;20.80;;;11.47;;
635;SDS011;302;50.206;8.196;2024-01-15T06:08:15;17.50;;;11.23;;
635;SDS011;302;50.206;8.196;2024-01-15T06:10:41;20.40;;;12.30;;
635;SDS011;302;50.206;8.196;2024-01-15T06:13:06;16.80;;;10.43;;
635;SDS011;302;50.206;8.196;2024-01-15T06:15:31;18.13;;;10.95;;
635;SDS011;302;50.206;8.196;2024-01-15T06:17:56;19.48;;;11.35;;
635;SDS011;302;50.206;8.196;2024-01-15T06:20:21;19.10;;;11.20;;
635;SDS011;302;50.206;8.196;2024-01-15T06:22:46;16.50;;;10.75;;
635;SDS011;302;50.206;8.196;2024-01-15T06:25:11;22.77;;;12.68;;
635;SDS011;302;50.206;8.196;2024-01-15T06:27:36;20.85;;;13.32;;
635;SDS011;302;50.206;8.196;2024-01-15T06:30:02;20.97;;;11.97;;
635;SDS011;302;50.206;8.196;2024-01-15T06:32:27;20.00;;;11.37;;
635;SDS011;302;50.206;8.196;2024-01-15T06:34:52;19.50;;;11.17;;
635;SDS011;302;50.206;8.196;2024-01-15T06:37:17;17.95;;;11.55;;
635;SDS011;302;50.206;8.196;2024-01-15T06:39:45;19.20;;;12.60;;
635;SDS011;302;50.206;8.196;2024-01-15T06:42:10;22.85;;;13.65;;
635;SDS011;302;50.206;8.196;2024-01-15T06:44:35;22.77;;;13.13;;
635;SDS011;302;50.206;8.196;2024-01-15T06:47:00;21.20;;;12.67;;
635;SDS011;302;50.206;8.196;2024-01-15T06:49:28;20.58;;;12.85;;
635;SDS011;302;50.206;8.196;2024-01-15T06:51:53;21.43;;;11.90;;
635;SDS011;302;50.206;8.196;2024-01-15T06:54:18;21.05;;;12.00;;
635;SDS011;302;50.206;8.196;2024-01-15T06:56:43;18.33;;;11.63;;
635;SDS011;302;50.206;8.196;2024-01-15T06:59:08;20.87;;;12.47;;
635;SDS011;302;50.206;8.196;2024-01-15T07:01:33;20.75;;;12.68;;
635;SDS011;302;50.206;8.196;2024-01-15T07:03:58;21.20;;;12.63;;
635;SDS011;302;50.206;8.196;2024-01-15T07:06:24;18.93;;;12.50;;
635;SDS011;302;50.206;8.196;2024-01-15T07:08:49;18.35;;;11.52;;
635;SDS011;302;50.206;8.196;2024-01-15T07:11:14;18.77;;;12.27;;
635;SDS011;302;50.206;8.196;2024-01-15T07:13:40;20.20;;;12.67;;
635;SDS011;302;50.206;8.196;2024-01-15T07:16:05;20.30;;;11.52;;
635;SDS011;302;50.206;8.196;2024-01-15T07:18:30;20.25;;;12.02;;
635;SDS011;302;50.206;8.196;2024-01-15T07:20:55;19.50;;;13.40;;
635;SDS011;302;50.206;8.196;2024-01-15T07:23:20;21.47;;;13.37;;
635;SDS011;302;50.206;8.196;2024-01-15T07:25:46;18.13;;;12.37;;
635;SDS011;302;50.206;8.196;2024-01-15T07:28:11;21.23;;;12.87;;
635;SDS011;302;50.206;8.196;2024-01-15T07:30:36;18.67;;;11.25;;
635;SDS011;302;50.206;8.196;2024-01-15T07:33:03;19.25;;;12.05;;
635;SDS011;302;50.206;8.196;2024-01-15T07:35:29;20.17;;;13.00;;
635;SDS011;302;50.206;8.196;2024-01-15T07:37:54;23.63;;;12.63;;
635;SDS011;302;50.206;8.196;2024-01-15T07:40:19;23.17;;;13.17;;
635;SDS011;302;50.206;8.196;2024-01-15T07:42:44;17.25;;;12.18;;
635;SDS011;302;50.206;8.196;2024-01-15T07:45:10;22.90;;;13.70;;
635;SDS011;302;50.206;8.196;2024-01-15T07:47:35;21.57;;;12.40;;
635;SDS011;302;50.206;8.196;2024-01-15T07:50:00;21.80;;;12.27;;
635;SDS011;302;50.206;8.196;2024-01-15T07:52:25;22.10;;;12.87;;
635;SDS011;302;50.206;8.196;2024-01-15T07:54:51;20.00;;;12.00;;
635;SDS011;302;50.206;8.196;2024-01-15T07:57:16;21.13;;;13.32;;
635;SDS011;302;50.206;8.196;2024-01-15T07:59:41;22.60;;;13.20;;
635;SDS011;302;50.206;8.196;2024-01-15T08:02:06;16.88;;;11.30;;
635;SDS011;302;50.206;8.196;2024-01-15T08:04:31;19.07;;;11.50;;
635;SDS011;302;50.206;8.196;2024-01-15T08:06:56;22.67;;;12.40;;
635;SDS011;302;50.206;8.196;2024-01-15T08:09:22;19.77;;;11.50;;
635;SDS011;302;50.206;8.196;2024-01-15T08:11:47;19.10;;;11.73;;
635;SDS011;302;50.206;8.196;2024-01-15T08:14:12;20.02;;;12.30;;
635;SDS011;302;50.206;8.196;2024-01-15T08:16:38;21.20;;;12.40;;
635;SDS011;302;50.206;8.196;2024-01-15T08:19:04;22.97;;;14.03;;
635;SDS011;302;50.206;8.196;2024-01-15T08:21:29;22.03;;;12.70;;
635;SDS011;302;50.206;8.196;2024-01-15T08:23:57;19.73;;;12.13;;
635;SDS011;302;50.206;8.196;2024-01-15T08:26:23;21.63;;;12.07;;
635;SDS011;302;50.206;8.196;2024-01-15T08:28:48;17.27;;;12.02;;
635;SDS011;302;50.206;8.196;2024-01-15T08:31:13;21.07;;;13.37;;
635;SDS011;302;50.206;8.196;2024-01-15T08:33:38;19.63;;;11.87;;
635;SDS011;302;50.206;8.196;2024-01-15T08:36:03;20.20;;;12.33;;
635;SDS011;302;50.206;8.196;2024-01-15T08:38:29;19.73;;;12.13;;
635;SDS011;302;50.206;8.196;2024-01-15T08:40:54;19.60;;;12.70;;
635;SDS011;302;50.206;8.196;2024-01-15T08:43:21;19.88;;;12.20;;
635;SDS011;302;50.206;8.196;2024-01-15T08:45:46;19.40;;;11.80;;
635;SDS011;302;50.206;8.196;2024-01-15T08:48:13;18.83;;;11.43;;
635;SDS011;302;50.206;8.196;2024-01-15T08:50:38;18.60;;;12.33;;
635;SDS011;302;50.206;8.196;2024-01-15T08:53:03;18.03;;;12.00;;
635;SDS011;302;50.206;8.196;2024-01-15T08:55:29;17.93;;;11.00;;
635;SDS011;302;50.206;8.196;2024-01-15T08:57:54;17.17;;;11.90;;
635;SDS011;302;50.206;8.196;2024-01-15T09:00:19;19.30;;;12.03;;
635;SDS011;302;50.206;8.196;2024-01-15T09:02:44;22.05;;;12.77;;
635;SDS011;302;50.206;8.196;2024-01-15T09:05:10;15.47;;;11.47;;
635;SDS011;302;50.206;8.196;2024-01-15T09:07:35;17.57;;;12.63;;
635;SDS011;302;50.206;8.196;2024-01-15T09:10:00;20.83;;;12.95;;
635;SDS011;302;50.206;8.196;2024-01-15T09:12:26;18.20;;;11.90;;
635;SDS011;302;50.206;8.196;2024-01-15T09:14:51;17.00;;;11.60;;
635;SDS011;302;50.206;8.196;2024-01-15T09:17:17;20.90;;;13.13;;
635;SDS011;302;50.206;8.196;2024-01-15T09:19:42;14.63;;;10.20;;
635;SDS011;302;50.206;8.196;2024-01-15T09:22:07;16.70;;;11.40;;
635;SDS011;302;50.206;8.196;2024-01-15T09:24:33;19.80;;;11.90;;
635;SDS011;302;50.206;8.196;2024-01-15T09:26:58;15.63;;;10.50;;
635;SDS011;302;50.206;8.196;2024-01-15T09:29:23;16.40;;;11.80;;
635;SDS011;302;50.206;8.196;2024-01-15T09:31:48;14.87;;;11.10;;
635;SDS011;302;50.206;8.196;2024-01-15T09:34:15;15.13;;;10.85;;
635;SDS011;302;50.206;8.196;2024-01-15T09:36:40;17.57;;;11.60;;
635;SDS011;302;50.206;8.196;2024-01-15T09:39:08;16.00;;;11.70;;
635;SDS011;302;50.206;8.196;2024-01-15T09:41:34;14.07;;;9.70;;
635;SDS011;302;50.206;8.196;2024-01-15T09:43:59;11.80;;;9.85;;
635;SDS011;302;50.206;8.196;2024-01-15T09:46:25;11.57;;;8.80;;
635;SDS011;302;50.206;8.196;2024-01-15T09:48:50;16.43;;;9.57;;
635;SDS011;302;50.206;8.196;2024-01-15T09:51:16;12.23;;;8.77;;
635;SDS011;302;50.206;8.196;2024-01-15T09:53:42;14.43;;;10.40;;
635;SDS011;302;50.206;8.196;2024-01-15T09:56:07;13.00;;;10.23;;
635;SDS011;302;50.206;8.196;2024-01-15T09:58:33;12.10;;;9.73;;
635;SDS011;302;50.206;8.196;2024-01-15T10:00:59;13.68;;;9.75;;
635;SDS011;302;50.206;8.196;2024-01-15T10:03:26;12.65;;;9.73;;
635;SDS011;302;50.206;8.196;2024-01-15T10:05:51;11.07;;;8.50;;
635;SDS011;302;50.206;8.196;2024-01-15T10:08:16;9.53;;;8.23;;
635;SDS011;302;50.206;8.196;2024-01-15T10:10:41;11.87;;;8.80;;
635;SDS011;302;50.206;8.196;2024-01-15T10:13:07;11.33;;;8.53;;
635;SDS011;302;50.206;8.196;2024-01-15T10:15:35;13.03;;;8.77;;
635;SDS011;302;50.206;8.196;2024-01-15T10:18:02;12.73;;;8.43;;
635;SDS011;302;50.206;8.196;2024-01-15T10:20:28;10.80;;;8.17;;
635;SDS011;302;50.206;8.196;2024-01-15T10:22:53;9.95;;;8.32;;
635;SDS011;302;50.206;8.196;2024-01-15T10:25:18;10.17;;;7.67;;
635;SDS011;302;50.206;8.196;2024-01-15T10:27:58;9.35;;;7.13;;
635;SDS011;302;50.206;8.196;2024-01-15T10:30:24;9.82;;;7.82;;
635;SDS011;302;50.206;8.196;2024-01-15T10:32:57;8.87;;;7.30;;
635;SDS011;302;50.206;8.196;2024-01-15T10:35:22;8.13;;;6.72;;
635;SDS011;302;50.206;8.196;2024-01-15T10:37:47;9.23;;;7.43;;
635;SDS011;302;50.206;8.196;2024-01-15T10:40:13;10.32;;;7.38;;
635;SDS011;302;50.206;8.196;2024-01-15T10:42:38;8.50;;;6.72;;
635;SDS011;302;50.206;8.196;2024-01-15T10:45:04;10.30;;;7.80;;
635;SDS011;302;50.206;8.196;2024-01-15T10:47:29;8.93;;;7.40;;
635;SDS011;302;50.206;8.196;2024-01-15T10:49:54;9.63;;;6.40;;
635;SDS011;302;50.206;8.196;2024-01-15T10:52:20;8.60;;;7.20;;
635;SDS011;302;50.206;8.196;2024-01-15T10:54:46;9.53;;;7.70;;
635;SDS011;302;50.206;8.196;2024-01-15T10:57:12;9.50;;;6.65;;
635;SDS011;302;50.206;8.196;2024-01-15T10:59:38;12.38;;;8.07;;
635;SDS011;302;50.206;8.196;2024-01-15T11:02:03;8.53;;;7.00;;
635;SDS011;302;50.206;8.196;2024-01-15T11:04:29;7.43;;;6.37;;
635;SDS011;302;50.206;8.196;2024-01-15T11:06:56;9.45;;;7.68;;
635;SDS011;302;50.206;8.196;2024-01-15T11:09:22;8.17;;;6.93;;
635;SDS011;302;50.206;8.196;2024-01-15T11:11:48;9.90;;;8.10;;
635;SDS011;302;50.206;8.196;2024-01-15T11:14:34;10.55;;;7.03;;
635;SDS011;302;50.206;8.196;2024-01-15T11:17:00;10.13;;;7.30;;
635;SDS011;302;50.206;8.196;2024-01-15T11:19:25;9.30;;;7.33;;
635;SDS011;302;50.206;8.196;2024-01-15T11:21:51;11.13;;;8.13;;
635;SDS011;302;50.206;8.196;2024-01-15T11:27:14;10.27;;;7.57;;
635;SDS011;302;50.206;8.196;2024-01-15T11:29:39;10.20;;;7.63;;
635;SDS011;302;50.206;8.196;2024-01-15T11:32:05;8.90;;;7.57;;
635;SDS011;302;50.206;8.196;2024-01-15T11:34:50;9.73;;;7.60;;
635;SDS011;302;50.206;8.196;2024-01-15T11:37:15;12.05;;;8.23;;
635;SDS011;302;50.206;8.196;2024-01-15T11:39:41;10.00;;;7.90;;
635;SDS011;302;50.206;8.196;2024-01-15T11:42:10;9.52;;;7.78;;
635;SDS011;302;50.206;8.196;2024-01-15T11:44:36;13.32;;;7.93;;
635;SDS011;302;50.206;8.196;2024-01-15T11:47:02;8.83;;;7.67;;
635;SDS011;302;50.206;8.196;2024-01-15T11:49:51;11.00;;;7.65;;
635;SDS011;302;50.206;8.196;2024-01-15T11:52:21;10.27;;;7.47;;
635;SDS011;302;50.206;8.196;2024-01-15T11:59:58;9.60;;;7.50;;
635;SDS011;302;50.206;8.196;2024-01-15T12:02:23;9.63;;;7.83;;
635;SDS011;302;50.206;8.196;2024-01-15T12:04:48;11.27;;;8.50;;
635;SDS011;302;50.206;8.196;2024-01-15T12:07:13;12.63;;;8.93;;
635;SDS011;302;50.206;8.196;2024-01-15T12:09:43;11.02;;;8.55;;
635;SDS011;302;50.206;8.196;2024-01-15T12:12:08;8.50;;;7.55;;
635;SDS011;302;50.206;8.196;2024-01-15T12:14:37;12.60;;;8.23;;
635;SDS011;302;50.206;8.196;2024-01-15T12:17:03;9.82;;;7.95;;
635;SDS011;302;50.206;8.196;2024-01-15T12:19:28;9.73;;;8.10;;
635;SDS011;302;50.206;8.196;2024-01-15T12:21:54;10.93;;;7.80;;
635;SDS011;302;50.206;8.196;2024-01-15T12:24:20;11.80;;;8.90;;
635;SDS011;302;50.206;8.196;2024-01-15T12:26:45;11.00;;;8.60;;
635;SDS011;302;50.206;8.196;2024-01-15T12:29:13;10.60;;;8.17;;
635;SDS011;302;50.206;8.196;2024-01-15T12:31:38;12.07;;;8.77;;
635;SDS011;302;50.206;8.196;2024-01-15T12:34:03;10.30;;;8.03;;
635;SDS011;302;50.206;8.196;2024-01-15T12:36:31;13.50;;;8.93;;
635;SDS011;302;50.206;8.196;2024-01-15T12:39:00;13.07;;;9.25;;
635;SDS011;302;50.206;8.196;2024-01-15T12:41:25;13.63;;;9.32;;
635;SDS011;302;50.206;8.196;2024-01-15T12:43:50;12.53;;;8.93;;
635;SDS011;302;50.206;8.196;2024-01-15T12:46:15;13.90;;;10.23;;
635;SDS011;302;50.206;8.196;2024-01-15T12:48:41;17.40;;;15.43;;
635;SDS011;302;50.206;8.196;2024-01-15T12:51:06;16.10;;;13.97;;
635;SDS011;302;50.206;8.196;2024-01-15T12:53:31;14.63;;;11.60;;
635;SDS011;302;50.206;8.196;2024-01-15T12:55:56;13.43;;;10.27;;
635;SDS011;302;50.206;8.196;2024-01-15T12:58:22;14.37;;;11.10;;
635;SDS011;302;50.206;8.196;2024-01-15T13:00:47;13.67;;;11.30;;
635;SDS011;302;50.206;8.196;2024-01-15T13:03:12;11.70;;;9.03;;
635;SDS011;302;50.206;8.196;2024-01-15T13:05:38;11.82;;;9.90;;
635;SDS011;302;50.206;8.196;2024-01-15T13:08:03;15.97;;;10.87;;
635;SDS011;302;50.206;8.196;2024-01-15T13:10:29;11.40;;;9.07;;
635;SDS011;302;50.206;8.196;2024-01-15T13:12:55;13.38;;;9.85;;
635;SDS011;302;50.206;8.196;2024-01-15T13:15:20;17.17;;;10.80;;
635;SDS011;302;50.206;8.196;2024-01-15T13:17:45;13.07;;;9.60;;
635;SDS011;302;50.206;8.196;2024-01-15T13:20:11;12.17;;;9.50;;
635;SDS011;302;50.206;8.196;2024-01-15T13:22:37;12.73;;;8.45;;
635;SDS011;302;50.206;8.196;2024-01-15T13:25:04;11.45;;;9.23;;
635;SDS011;302;50.206;8.196;2024-01-15T13:27:30;11.52;;;8.40;;
635;SDS011;302;50.206;8.196;2024-01-15T13:29:55;11.00;;;8.00;;
635;SDS011;302;50.206;8.196;2024-01-15T13:32:24;11.57;;;7.73;;
635;SDS011;302;50.206;8.196;2024-01-15T13:34:51;11.55;;;8.82;;
635;SDS011;302;50.206;8.196;2024-01-15T13:37:16;10.50;;;9.02;;
635;SDS011;302;50.206;8.196;2024-01-15T13:39:42;14.90;;;10.57;;
635;SDS011;302;50.206;8.196;2024-01-15T13:42:07;14.27;;;9.50;;
635;SDS011;302;50.206;8.196;2024-01-15T13:44:32;10.48;;;8.10;;
635;SDS011;302;50.206;8.196;2024-01-15T13:46:57;11.60;;;8.40;;
635;SDS011;302;50.206;8.196;2024-01-15T13:49:22;10.43;;;7.70;;
635;SDS011;302;50.206;8.196;2024-01-15T13:51:48;8.68;;;7.18;;
635;SDS011;302;50.206;8.196;2024-01-15T13:54:14;12.18;;;7.43;;
635;SDS011;302;50.206;8.196;2024-01-15T13:56:40;10.95;;;8.60;;
635;SDS011;302;50.206;8.196;2024-01-15T13:59:05;10.33;;;8.57;;
635;SDS011;302;50.206;8.196;2024-01-15T14:01:30;11.67;;;8.07;;
635;SDS011;302;50.206;8.196;2024-01-15T14:03:56;11.50;;;8.57;;
635;SDS011;302;50.206;8.196;2024-01-15T14:06:21;12.60;;;8.95;;
635;SDS011;302;50.206;8.196;2024-01-15T14:08:46;11.17;;;7.63;;
635;SDS011;302;50.206;8.196;2024-01-15T14:11:11;12.57;;;8.57;;
635;SDS011;302;50.206;8.196;2024-01-15T14:13:37;11.67;;;7.70;;
635;SDS011;302;50.206;8.196;2024-01-15T14:16:02;10.80;;;7.47;;
635;SDS011;302;50.206;8.196;2024-01-15T14:18:27;8.63;;;7.60;;
635;SDS011;302;50.206;8.196;2024-01-15T14:20:53;9.53;;;6.97;;
635;SDS011;302;50.206;8.196;2024-01-15T14:23:21;11.00;;;7.72;;
635;SDS011;302;50.206;8.196;2024-01-15T14:25:46;13.03;;;8.10;;
635;SDS011;302;50.206;8.196;2024-01-15T14:28:11;10.80;;;7.17;;
635;SDS011;302;50.206;8.196;2024-01-15T14:30:36;11.67;;;7.60;;
635;SDS011;302;50.206;8.196;2024-01-15T14:33:01;9.95;;;7.82;;
635;SDS011;302;50.206;8.196;2024-01-15T14:35:27;11.17;;;7.50;;
635;SDS011;302;50.206;8.196;2024-01-15T14:37:52;10.70;;;7.53;;
635;SDS011;302;50.206;8.196;2024-01-15T14:40:17;9.77;;;7.70;;
635;SDS011;302;50.206;8.196;2024-01-15T14:42:43;9.00;;;6.85;;
635;SDS011;302;50.206;8.196;2024-01-15T14:45:08;10.43;;;7.30;;
635;SDS011;302;50.206;8.196;2024-01-15T14:47:36;7.63;;;6.70;;
635;SDS011;302;50.206;8.196;2024-01-15T14:50:02;10.30;;;6.80;;
635;SDS011;302;50.206;8.196;2024-01-15T14:52:27;7.77;;;6.07;;
635;SDS011;302;50.206;8.196;2024-01-15T14:54:52;9.25;;;6.30;;
635;SDS011;302;50.206;8.196;2024-01-15T14:57:18;8.68;;;6.38;;
635;SDS011;302;50.206;8.196;2024-01-15T14:59:43;7.13;;;6.33;;
635;SDS011;302;50.206;8.196;2024-01-15T15:02:08;7.80;;;5.70;;
635;SDS011;302;50.206;8.196;2024-01-15T15:04:33;6.67;;;6.03;;
635;SDS011;302;50.206;8.196;2024-01-15T15:06:58;6.63;;;5.53;;
635;SDS011;302;50.206;8.196;2024-01-15T15:09:24;6.20;;;5.20;;
635;SDS011;302;50.206;8.196;2024-01-15T15:11:49;8.40;;;5.47;;
635;SDS011;302;50.206;8.196;2024-01-15T15:14:15;7.43;;;5.78;;
635;SDS011;302;50.206;8.196;2024-01-15T15:16:41;8.10;;;5.63;;
635;SDS011;302;50.206;8.196;2024-01-15T15:19:06;7.57;;;5.50;;
635;SDS011;302;50.206;8.196;2024-01-15T15:21:31;7.97;;;5.78;;
635;SDS011;302;50.206;8.196;2024-01-15T15:23:56;8.40;;;5.43;;